Tippecanoe, Ohio
Current Conditions -  °F | °C
As of 2:53 AM on Wednesday 22 Oct 2014 (Local Time) from KPHD Reporting Station
Overcast Overcast  
Wind Chill: 45°   Ceiling: 1100
Heat Index: 48°   Visibility: 8mi
Dew Point: 45°   Wind: 6mph
Humidity: 89%   Direction: 320°NW
Pressure: 30.1"   Gusts: NA
Location:  40.27°N, 81.29°W
Report Text: KPHD 220653Z AUTO 32005KT 8SM BKN011 OVC016 09/07 A3010 RMK AO2 RAB0554E08 SLP194 P0000 T00890072 TSNO
Loading
Personal Weather Stations






























Interactive Weather Map
Tropical Storm Tracking
New forecast layout! Learn more

10-Day Weather Forecast

Advertisements
Track Severe Weather on mobile